Time;durP1;ratioP1;P1;durP2;ratioP2;P2;SDS_P1;SDS_P2;PMS_P1;PMS_P2;Temp;Humidity;BMP_temperature;BMP_pressure;BME280_temperature;BME280_humidity;BME280_pressure;Samples;Min_cycle;Max_cycle;Signal;HPM_P1;HPM_P2
2023/03/28 00:00:10;;;;;;;5.87;2.53;;;4.60;91.60;;;;;;5056145;28;20475;-57
2023/03/28 00:02:37;;;;;;;4.37;2.60;;;4.50;91.80;;;;;;5055888;28;20995;-56
2023/03/28 00:05:06;;;;;;;4.87;2.50;;;4.50;92.10;;;;;;5056313;28;20453;-57
2023/03/28 00:07:33;;;;;;;8.43;2.17;;;4.50;92.40;;;;;;5056143;28;20461;-56
2023/03/28 00:10:00;;;;;;;5.43;2.63;;;4.50;92.50;;;;;;5056027;28;20482;-56
2023/03/28 00:12:29;;;;;;;6.23;1.87;;;4.40;92.40;;;;;;5055600;28;20943;-56
2023/03/28 00:14:56;;;;;;;7.70;2.50;;;4.40;92.60;;;;;;5055939;28;20449;-57
2023/03/28 00:17:23;;;;;;;6.93;2.50;;;4.40;92.80;;;;;;5055529;28;20874;-56
2023/03/28 00:19:52;;;;;;;4.97;2.30;;;4.40;93.40;;;;;;5055790;28;20512;-56
2023/03/28 00:22:19;;;;;;;6.83;2.73;;;4.30;93.10;;;;;;5055751;28;20458;-57
2023/03/28 00:24:47;;;;;;;8.10;2.40;;;4.30;93.10;;;;;;5055416;28;20864;-57
2023/03/28 00:27:14;;;;;;;10.13;3.23;;;4.30;93.20;;;;;;5055742;28;20476;-56
2023/03/28 00:29:42;;;;;;;5.17;2.30;;;4.30;93.60;;;;;;5055843;28;20469;-56
2023/03/28 00:32:09;;;;;;;5.30;2.53;;;4.30;93.30;;;;;;5055272;28;20495;-56
2023/03/28 00:34:36;;;;;;;4.90;2.17;;;4.30;93.40;;;;;;5055485;28;20512;-56
2023/03/28 00:37:04;;;;;;;4.60;2.50;;;4.30;93.70;;;;;;5055421;28;20847;-56
2023/03/28 00:39:31;;;;;;;9.13;2.50;;;4.30;93.90;;;;;;5055298;28;20457;-56
2023/03/28 00:42:01;;;;;;;9.07;3.37;;;4.40;94.10;;;;;;5055435;28;20504;-56
2023/03/28 00:44:44;;;;;;;3.20;1.80;;;4.40;94.30;;;;;;5055298;28;20465;-56
2023/03/28 00:47:17;;;;;;;7.20;2.30;;;4.40;93.70;;;;;;5055050;28;20441;-56
2023/03/28 00:49:45;;;;;;;10.70;2.60;;;4.30;93.80;;;;;;5055327;28;20501;-56
2023/03/28 00:52:14;;;;;;;3.83;2.30;;;4.30;93.80;;;;;;5055191;28;20456;-56
2023/03/28 00:54:41;;;;;;;7.77;2.47;;;4.30;93.90;;;;;;5055441;28;20458;-56
2023/03/28 00:57:10;;;;;;;6.70;2.40;;;4.30;94.10;;;;;;5055173;28;20457;-57
2023/03/28 00:59:38;;;;;;;5.80;2.50;;;4.30;94.10;;;;;;5054775;28;20957;-56
2023/03/28 01:02:07;;;;;;;7.10;3.77;;;4.30;94.10;;;;;;5054991;28;20461;-56
2023/03/28 01:04:40;;;;;;;8.10;2.60;;;4.40;94.20;;;;;;5054979;28;20508;-56
2023/03/28 01:07:07;;;;;;;5.33;2.33;;;4.40;94.10;;;;;;5054569;28;20959;-56
2023/03/28 01:09:35;;;;;;;5.37;2.10;;;4.40;94.00;;;;;;5054763;28;20893;-56
2023/03/28 01:12:02;;;;;;;10.73;2.63;;;4.40;94.00;;;;;;5054608;28;20450;-56
2023/03/28 01:14:30;;;;;;;6.73;2.63;;;4.40;94.20;;;;;;5054763;28;20470;-57
2023/03/28 01:16:56;;;;;;;4.93;2.60;;;4.40;94.10;;;;;;5055067;28;20464;-56
2023/03/28 01:19:35;;;;;;;3.80;2.73;;;4.40;94.00;;;;;;5054963;28;20461;-56
2023/03/28 01:22:50;;;;;;;3.13;2.00;;;4.50;94.10;;;;;;5054688;28;21003;-57
2023/03/28 01:25:44;;;;;;;3.53;1.90;;;4.50;94.00;;;;;;4986568;28;20455;-56
2023/03/28 01:28:18;;;;;;;5.13;2.13;;;4.40;93.80;;;;;;5049139;28;20462;-56
2023/03/28 01:31:11;;;;;;;5.60;2.33;;;4.50;94.00;;;;;;5054160;28;21024;-56
2023/03/28 01:34:09;;;;;;;5.63;2.50;;;4.50;94.10;;;;;;5054327;28;20470;-56
2023/03/28 01:37:09;;;;;;;5.10;2.00;;;4.50;94.00;;;;;;5054319;28;20452;-56
2023/03/28 01:39:51;;;;;;;7.80;2.60;;;4.50;93.90;;;;;;5054614;28;20552;-56
2023/03/28 01:42:27;;;;;;;3.23;2.37;;;4.40;93.50;;;;;;5054312;28;20457;-57
2023/03/28 01:45:02;;;;;;;6.60;2.73;;;4.30;93.50;;;;;;5054014;28;20934;-56
2023/03/28 01:47:35;;;;;;;5.30;2.50;;;4.30;93.50;;;;;;5054792;28;20468;-56
2023/03/28 01:50:07;;;;;;;4.83;2.37;;;4.20;93.60;;;;;;5054387;28;20473;-56
2023/03/28 01:52:43;;;;;;;7.33;2.50;;;4.20;93.90;;;;;;5054263;28;20434;-56
2023/03/28 01:55:19;;;;;;;5.97;2.80;;;4.20;93.90;;;;;;5054065;28;20430;-56
2023/03/28 01:57:52;;;;;;;7.63;2.87;;;4.20;93.80;;;;;;5054164;28;20430;-56
2023/03/28 02:00:25;;;;;;;6.07;2.73;;;4.10;94.00;;;;;;5054209;28;20434;-56
2023/03/28 02:02:56;;;;;;;6.83;2.97;;;4.10;93.90;;;;;;5053723;28;21013;-57
2023/03/28 02:05:25;;;;;;;6.30;2.57;;;4.00;94.10;;;;;;5053858;28;20426;-56
2023/03/28 02:07:54;;;;;;;2.70;2.50;;;4.00;94.20;;;;;;5053805;28;21045;-56
2023/03/28 02:10:24;;;;;;;10.93;3.30;;;4.00;94.30;;;;;;5053427;28;21013;-56
2023/03/28 02:12:55;;;;;;;7.60;2.73;;;4.00;94.70;;;;;;5053668;28;20461;-56
2023/03/28 02:15:24;;;;;;;7.90;2.80;;;4.00;94.90;;;;;;5053923;28;20445;-56
2023/03/28 02:18:01;;;;;;;5.80;2.97;;;4.00;94.90;;;;;;5053903;28;20453;-56
2023/03/28 02:20:31;;;;;;;5.63;2.97;;;4.00;94.60;;;;;;5053813;28;20425;-56
2023/03/28 02:23:02;;;;;;;12.03;3.63;;;3.90;94.30;;;;;;5053479;28;20469;-56
2023/03/28 02:25:30;;;;;;;8.60;3.60;;;3.90;94.20;;;;;;5053513;28;20472;-56
2023/03/28 02:28:01;;;;;;;14.57;4.10;;;3.90;94.30;;;;;;5053550;28;20457;-56
2023/03/28 02:30:28;;;;;;;20.47;4.67;;;3.80;94.50;;;;;;5053691;28;20476;-56
2023/03/28 02:32:59;;;;;;;8.97;3.60;;;3.70;94.60;;;;;;5053335;28;20990;-56
2023/03/28 02:35:37;;;;;;;6.10;3.30;;;3.70;94.70;;;;;;5053365;28;20540;-56
2023/03/28 02:38:15;;;;;;;11.07;4.37;;;3.60;95.00;;;;;;5053260;28;20437;-56
2023/03/28 02:40:52;;;;;;;20.77;4.43;;;3.50;95.20;;;;;;5053373;28;20455;-56
2023/03/28 02:43:43;;;;;;;4.30;3.67;;;3.50;95.40;;;;;;5053241;28;20461;-57
2023/03/28 02:46:22;;;;;;;10.63;3.87;;;3.50;95.60;;;;;;5053075;28;20912;-56
2023/03/28 02:49:26;;;;;;;9.37;5.00;;;3.50;95.70;;;;;;5053032;28;20437;-56
2023/03/28 02:52:08;;;;;;;9.67;4.53;;;3.50;95.80;;;;;;5050047;28;20894;-56
2023/03/28 02:54:40;;;;;;;7.70;3.80;;;3.50;95.90;;;;;;5066690;28;20480;-56
2023/03/28 02:57:11;;;;;;;5.97;3.53;;;3.50;95.90;;;;;;5073321;28;20424;-56
2023/03/28 02:59:43;;;;;;;7.27;4.10;;;3.50;96.00;;;;;;5073156;28;20436;-56
2023/03/28 03:02:10;;;;;;;6.67;3.73;;;3.50;96.00;;;;;;5073097;28;20450;-57
2023/03/28 03:04:37;;;;;;;7.20;3.20;;;3.40;95.70;;;;;;5073177;28;20472;-56
2023/03/28 03:07:04;;;;;;;5.40;3.50;;;3.40;95.80;;;;;;5073326;28;20440;-56
2023/03/28 03:09:32;;;;;;;5.87;4.77;;;3.30;95.70;;;;;;5073725;28;20455;-55
2023/03/28 03:12:00;;;;;;;8.90;4.17;;;3.20;95.90;;;;;;5073019;28;20529;-56
2023/03/28 03:14:27;;;;;;;11.00;4.00;;;3.20;96.20;;;;;;5072646;28;21000;-56
2023/03/28 03:16:53;;;;;;;8.70;4.63;;;3.10;96.50;;;;;;5073071;28;20499;-56
2023/03/28 03:19:20;;;;;;;6.80;3.70;;;3.10;96.90;;;;;;5072675;28;20808;-56
2023/03/28 03:21:48;;;;;;;7.20;3.83;;;3.00;97.20;;;;;;5073202;28;20445;-56
2023/03/28 03:24:15;;;;;;;9.70;3.20;;;3.00;97.90;;;;;;5072902;28;20472;-56
2023/03/28 03:26:42;;;;;;;10.93;5.07;;;3.00;97.80;;;;;;5073024;28;20447;-56
2023/03/28 03:29:10;;;;;;;16.30;4.50;;;3.00;97.90;;;;;;5073283;28;20448;-56
2023/03/28 03:31:36;;;;;;;6.27;3.87;;;2.90;97.90;;;;;;5076796;28;20488;-56
2023/03/28 03:34:03;;;;;;;9.07;3.37;;;2.90;97.90;;;;;;5076628;28;20475;-56
2023/03/28 03:36:30;;;;;;;11.57;4.17;;;2.80;98.20;;;;;;5076603;28;20486;-56
2023/03/28 03:38:57;;;;;;;10.30;4.43;;;2.70;98.50;;;;;;5076304;28;20535;-56
2023/03/28 03:41:24;;;;;;;8.30;4.60;;;2.70;98.70;;;;;;5076577;28;20444;-56
2023/03/28 03:43:51;;;;;;;6.07;4.00;;;2.80;98.90;;;;;;5076360;28;20464;-56
2023/03/28 03:46:19;;;;;;;8.23;4.20;;;2.80;99.00;;;;;;5076491;28;20480;-56
2023/03/28 03:48:45;;;;;;;6.70;3.50;;;3.00;99.00;;;;;;5076415;28;20476;-56
2023/03/28 03:51:12;;;;;;;13.07;4.07;;;3.00;98.90;;;;;;5076237;28;20445;-57
2023/03/28 03:53:39;;;;;;;7.07;3.90;;;3.10;98.90;;;;;;5076419;28;21035;-57
2023/03/28 03:56:07;;;;;;;12.03;4.00;;;3.10;98.70;;;;;;5076361;28;20484;-56
2023/03/28 03:58:34;;;;;;;5.50;3.30;;;3.20;98.60;;;;;;5075995;28;20464;-56
2023/03/28 04:01:01;;;;;;;5.97;4.20;;;3.30;98.50;;;;;;5076035;28;20480;-56
2023/03/28 04:03:29;;;;;;;7.33;4.20;;;3.30;98.30;;;;;;5076109;28;20563;-56
2023/03/28 04:05:56;;;;;;;12.40;4.40;;;3.40;98.10;;;;;;5076103;28;20467;-56
2023/03/28 04:08:23;;;;;;;15.53;3.77;;;3.50;98.10;;;;;;5075782;28;21003;-56
2023/03/28 04:10:50;;;;;;;9.40;4.20;;;3.50;97.90;;;;;;5076050;28;20441;-56
2023/03/28 04:13:17;;;;;;;18.07;5.27;;;3.60;97.90;;;;;;5075711;28;20988;-56
2023/03/28 04:15:45;;;;;;;5.70;3.33;;;3.60;97.50;;;;;;5075950;28;20859;-57
2023/03/28 04:18:14;;;;;;;10.73;5.07;;;3.70;97.30;;;;;;5076109;28;20531;-56
2023/03/28 04:20:42;;;;;;;5.50;3.43;;;3.60;97.00;;;;;;5075862;28;20487;-56
2023/03/28 04:23:09;;;;;;;12.73;4.27;;;3.60;96.90;;;;;;5075763;28;20538;-56
2023/03/28 04:25:35;;;;;;;7.20;4.07;;;3.60;96.70;;;;;;5075742;28;20449;-56
2023/03/28 04:28:03;;;;;;;7.30;4.00;;;3.60;96.50;;;;;;5075907;28;20453;-56
2023/03/28 04:30:30;;;;;;;5.93;4.07;;;3.60;96.60;;;;;;5075438;28;20455;-56
2023/03/28 04:32:57;;;;;;;7.00;4.37;;;3.60;96.60;;;;;;5075846;28;20480;-57
2023/03/28 04:35:24;;;;;;;7.77;4.83;;;3.60;96.90;;;;;;5076273;28;20456;-56
2023/03/28 04:37:52;;;;;;;7.87;4.30;;;3.60;97.00;;;;;;5075297;28;20849;-56
2023/03/28 04:40:20;;;;;;;13.80;4.10;;;3.50;96.90;;;;;;5075293;28;20445;-56
2023/03/28 04:42:47;;;;;;;9.53;5.00;;;3.60;96.90;;;;;;5075672;28;20469;-56
2023/03/28 04:45:13;;;;;;;6.80;4.20;;;3.60;96.80;;;;;;5075770;28;20448;-56
2023/03/28 04:47:40;;;;;;;6.60;4.83;;;3.60;96.70;;;;;;5076075;28;20449;-56
2023/03/28 04:50:09;;;;;;;7.90;4.70;;;3.60;96.60;;;;;;5076055;28;20832;-56
2023/03/28 04:52:35;;;;;;;9.07;4.00;;;3.60;96.80;;;;;;5075105;28;20847;-56
2023/03/28 04:55:04;;;;;;;11.80;4.23;;;3.50;96.70;;;;;;5075114;28;20450;-57
2023/03/28 04:57:31;;;;;;;5.60;4.00;;;3.50;96.50;;;;;;5074812;28;20845;-56
2023/03/28 04:59:58;;;;;;;10.47;4.50;;;3.50;96.50;;;;;;5074934;28;20862;-56
2023/03/28 05:02:24;;;;;;;8.53;4.37;;;3.50;96.60;;;;;;5075445;28;20889;-57
2023/03/28 05:04:52;;;;;;;5.97;3.90;;;3.50;96.60;;;;;;5075173;28;20453;-57
2023/03/28 05:07:18;;;;;;;6.47;4.50;;;3.40;96.60;;;;;;5075085;28;20455;-56
2023/03/28 05:09:45;;;;;;;8.00;4.20;;;3.40;96.70;;;;;;5074636;28;20800;-56
2023/03/28 05:12:13;;;;;;;12.57;4.63;;;3.40;96.90;;;;;;5074744;28;20947;-56
2023/03/28 05:14:40;;;;;;;13.90;4.87;;;3.50;97.10;;;;;;5074769;28;20468;-56
2023/03/28 05:17:07;;;;;;;12.40;5.00;;;3.40;97.00;;;;;;5074507;28;20453;-56
2023/03/28 05:19:34;;;;;;;9.30;4.30;;;3.40;97.10;;;;;;5074384;28;20445;-56
2023/03/28 05:22:00;;;;;;;10.70;4.03;;;3.40;97.30;;;;;;5074799;28;20485;-56
2023/03/28 05:24:27;;;;;;;12.07;4.70;;;3.40;97.30;;;;;;5074672;28;20464;-56
2023/03/28 05:26:54;;;;;;;7.10;4.37;;;3.50;97.50;;;;;;5074596;28;20456;-56
2023/03/28 05:29:22;;;;;;;15.43;5.93;;;3.50;97.30;;;;;;5074602;28;20440;-57
2023/03/28 05:31:48;;;;;;;10.57;5.40;;;3.60;97.20;;;;;;5074535;28;20815;-56
2023/03/28 05:34:15;;;;;;;11.17;5.50;;;3.50;97.30;;;;;;5074406;28;20480;-56
2023/03/28 05:36:42;;;;;;;23.80;9.40;;;3.60;97.30;;;;;;5074371;28;20852;-56
2023/03/28 05:39:08;;;;;;;17.13;7.03;;;3.60;97.30;;;;;;5074008;28;20841;-56
2023/03/28 05:41:35;;;;;;;14.97;6.00;;;3.60;97.20;;;;;;5074281;28;20480;-56
2023/03/28 05:44:03;;;;;;;10.33;4.87;;;3.60;97.30;;;;;;5073965;28;20473;-56
2023/03/28 05:46:32;;;;;;;10.03;4.83;;;3.50;97.40;;;;;;5074006;28;20443;-56
2023/03/28 05:48:59;;;;;;;11.17;4.90;;;3.60;97.40;;;;;;5073841;28;20452;-56
2023/03/28 05:51:25;;;;;;;9.03;4.90;;;3.50;97.40;;;;;;5073619;28;20441;-56
2023/03/28 05:53:52;;;;;;;7.40;4.13;;;3.60;97.50;;;;;;5064382;28;21076;-56
2023/03/28 05:56:19;;;;;;;12.07;3.87;;;3.60;97.60;;;;;;5053955;28;20453;-57
2023/03/28 05:58:45;;;;;;;11.70;4.67;;;3.60;97.60;;;;;;5053694;28;20446;-56
2023/03/28 06:01:16;;;;;;;11.50;4.20;;;3.60;97.50;;;;;;5053606;28;21002;-56
2023/03/28 06:03:44;;;;;;;13.00;4.70;;;3.60;97.40;;;;;;5053929;28;20474;-56
2023/03/28 06:06:12;;;;;;;9.33;4.53;;;3.70;97.40;;;;;;5053734;28;20858;-56
2023/03/28 06:08:39;;;;;;;10.47;4.17;;;3.70;97.40;;;;;;5053774;28;20976;-56
2023/03/28 06:11:06;;;;;;;11.00;4.93;;;3.80;97.10;;;;;;5053800;28;20864;-57
2023/03/28 06:13:33;;;;;;;14.90;4.70;;;3.80;97.00;;;;;;5053348;28;20986;-56
2023/03/28 06:16:00;;;;;;;21.77;6.60;;;3.80;97.00;;;;;;5053749;28;20453;-56
2023/03/28 06:18:27;;;;;;;16.07;6.30;;;3.80;97.00;;;;;;5053584;28;20947;-56
2023/03/28 06:20:55;;;;;;;18.10;5.40;;;3.80;97.20;;;;;;5053403;28;20833;-56
2023/03/28 06:23:21;;;;;;;10.90;5.13;;;3.90;97.20;;;;;;5053596;28;20470;-56
2023/03/28 06:25:48;;;;;;;9.30;4.80;;;3.90;97.30;;;;;;5053338;28;20935;-57
2023/03/28 06:28:15;;;;;;;10.67;4.43;;;3.90;97.40;;;;;;5053710;28;20488;-56
2023/03/28 06:30:42;;;;;;;11.40;5.40;;;4.00;97.40;;;;;;5053630;28;20454;-56
2023/03/28 06:33:09;;;;;;;11.00;5.83;;;4.00;97.30;;;;;;5053118;28;20846;-56
2023/03/28 06:35:35;;;;;;;13.30;5.37;;;4.10;97.30;;;;;;5053347;28;20446;-56
2023/03/28 06:38:04;;;;;;;7.47;4.23;;;4.10;97.20;;;;;;5053318;28;20461;-56
2023/03/28 06:40:30;;;;;;;8.13;4.70;;;4.10;97.30;;;;;;5053401;28;20441;-56
2023/03/28 06:42:57;;;;;;;13.97;5.10;;;4.10;97.40;;;;;;5053030;28;21064;-56
2023/03/28 06:45:24;;;;;;;14.10;5.90;;;4.20;97.50;;;;;;5053270;28;20445;-56
2023/03/28 06:47:51;;;;;;;11.77;4.90;;;4.30;97.30;;;;;;5053247;28;20862;-56
2023/03/28 06:50:18;;;;;;;8.77;5.00;;;4.30;97.30;;;;;;5052887;28;20854;-56
2023/03/28 06:52:46;;;;;;;12.80;4.70;;;4.40;97.20;;;;;;5052886;28;20983;-56
2023/03/28 06:55:14;;;;;;;11.23;4.80;;;4.50;97.10;;;;;;5052836;28;20445;-56
2023/03/28 06:57:40;;;;;;;10.27;4.03;;;4.50;96.90;;;;;;5053076;28;20450;-56
2023/03/28 07:00:08;;;;;;;18.50;4.40;;;4.60;96.80;;;;;;5053193;28;20536;-56
2023/03/28 07:02:35;;;;;;;8.53;4.90;;;4.70;96.80;;;;;;5052533;28;20484;-56
2023/03/28 07:05:02;;;;;;;11.50;4.33;;;4.70;96.60;;;;;;5057023;28;20532;-57
2023/03/28 07:07:28;;;;;;;9.57;4.90;;;4.80;96.60;;;;;;5057272;28;20445;-56
2023/03/28 07:09:55;;;;;;;13.37;5.53;;;4.90;96.50;;;;;;5057170;28;20476;-56
2023/03/28 07:12:23;;;;;;;18.77;4.73;;;4.90;96.40;;;;;;5057088;28;20457;-56
2023/03/28 07:14:50;;;;;;;12.27;4.43;;;5.00;96.40;;;;;;5057076;28;20442;-55
2023/03/28 07:17:16;;;;;;;13.40;5.43;;;5.10;96.50;;;;;;5056695;28;20548;-56
2023/03/28 07:19:44;;;;;;;13.30;4.77;;;5.30;96.40;;;;;;5056692;28;20449;-56
2023/03/28 07:22:11;;;;;;;9.30;4.80;;;5.40;95.70;;;;;;5056837;28;20485;-56
2023/03/28 07:24:38;;;;;;;7.80;3.83;;;5.50;95.30;;;;;;5056825;28;20528;-56
2023/03/28 07:27:05;;;;;;;7.07;4.33;;;5.60;95.10;;;;;;5056788;28;20453;-56
2023/03/28 07:29:33;;;;;;;12.47;4.63;;;5.70;95.10;;;;;;5056875;28;20498;-56
2023/03/28 07:31:59;;;;;;;9.73;4.30;;;5.80;94.60;;;;;;5056837;28;20449;-56
2023/03/28 07:34:26;;;;;;;9.17;4.37;;;5.90;94.40;;;;;;5056714;28;20497;-56
2023/03/28 07:36:53;;;;;;;9.13;4.80;;;5.90;94.20;;;;;;5056408;28;20947;-56
2023/03/28 07:39:20;;;;;;;10.90;5.00;;;6.00;94.30;;;;;;5056554;28;20507;-56
2023/03/28 07:41:46;;;;;;;14.03;4.53;;;6.10;94.20;;;;;;5056685;28;20489;-56
2023/03/28 07:44:13;;;;;;;13.17;4.80;;;6.10;93.80;;;;;;5056310;28;20832;-56
2023/03/28 07:46:42;;;;;;;10.37;4.30;;;6.10;93.80;;;;;;5056887;28;20825;-56
2023/03/28 07:49:09;;;;;;;8.80;4.43;;;6.20;93.90;;;;;;5056617;28;20453;-56
2023/03/28 07:51:36;;;;;;;10.70;3.80;;;6.30;93.60;;;;;;5056420;28;20446;-57
2023/03/28 07:54:03;;;;;;;11.20;4.53;;;6.40;93.30;;;;;;5056591;28;20558;-57
2023/03/28 07:56:30;;;;;;;11.53;4.20;;;6.40;93.30;;;;;;5056495;28;20449;-57
2023/03/28 07:58:57;;;;;;;9.80;3.60;;;6.50;93.00;;;;;;5057261;28;20449;-56
2023/03/28 08:01:25;;;;;;;14.30;3.80;;;6.60;93.20;;;;;;5056291;28;20453;-57
2023/03/28 08:03:53;;;;;;;16.97;3.87;;;6.60;92.50;;;;;;5056270;28;20496;-57
2023/03/28 08:06:19;;;;;;;10.60;3.50;;;6.70;92.30;;;;;;5056248;28;20461;-57
2023/03/28 08:08:46;;;;;;;7.47;3.00;;;6.80;92.10;;;;;;5056186;28;20449;-57
2023/03/28 08:11:13;;;;;;;8.20;2.83;;;6.90;92.10;;;;;;5056079;28;20454;-57
2023/03/28 08:13:39;;;;;;;10.23;3.93;;;7.10;91.90;;;;;;5055734;28;20544;-56
2023/03/28 08:16:07;;;;;;;4.93;2.90;;;7.20;91.20;;;;;;5054860;28;20992;-56
2023/03/28 08:18:34;;;;;;;19.67;5.10;;;7.40;90.90;;;;;;5055831;28;20454;-56
2023/03/28 08:21:03;;;;;;;8.33;2.37;;;7.50;90.40;;;;;;5055915;28;20448;-56
2023/03/28 08:23:30;;;;;;;8.63;2.90;;;7.60;90.60;;;;;;5055819;28;20493;-57
2023/03/28 08:26:03;;;;;;;8.93;2.63;;;7.70;89.50;;;;;;5055589;28;20493;-56
2023/03/28 08:28:31;;;;;;;8.17;3.00;;;7.90;89.40;;;;;;5055535;28;20798;-57
2023/03/28 08:30:58;;;;;;;7.53;2.77;;;8.00;88.20;;;;;;5055739;28;20453;-57
2023/03/28 08:33:27;;;;;;;9.43;2.40;;;8.10;88.00;;;;;;5055560;28;20465;-57
2023/03/28 08:35:54;;;;;;;4.37;1.90;;;8.20;88.40;;;;;;5056001;28;20464;-57
2023/03/28 08:38:23;;;;;;;11.33;2.23;;;8.40;88.00;;;;;;5055401;28;20487;-57
2023/03/28 08:41:00;;;;;;;7.53;2.27;;;8.50;85.30;;;;;;5055717;28;20449;-56
2023/03/28 08:43:54;;;;;;;6.30;1.83;;;8.70;85.10;;;;;;5055916;28;20490;-57
2023/03/28 08:46:22;;;;;;;6.80;2.53;;;8.90;84.50;;;;;;5055198;28;20965;-57
2023/03/28 08:48:51;;;;;;;5.90;2.40;;;9.00;83.40;;;;;;5055463;28;20453;-57
2023/03/28 08:51:22;;;;;;;5.50;2.07;;;9.20;83.20;;;;;;5055207;28;20456;-57
2023/03/28 08:53:55;;;;;;;4.77;2.53;;;9.20;81.10;;;;;;5062798;28;20476;-57
2023/03/28 08:56:22;;;;;;;8.17;2.30;;;9.20;81.90;;;;;;5075456;28;20429;-57
2023/03/28 08:58:55;;;;;;;3.10;1.57;;;9.30;82.60;;;;;;5075221;28;20523;-57
2023/03/28 09:01:22;;;;;;;5.40;1.40;;;9.40;80.80;;;;;;5075206;28;20441;-56
2023/03/28 09:03:49;;;;;;;6.90;2.17;;;9.50;79.50;;;;;;5074715;28;21059;-57
2023/03/28 09:06:25;;;;;;;6.80;1.80;;;9.60;77.60;;;;;;5075143;28;20444;-56
2023/03/28 09:09:07;;;;;;;6.77;2.10;;;9.60;77.60;;;;;;5075038;28;20429;-57
2023/03/28 09:11:44;;;;;;;4.73;1.90;;;9.70;77.50;;;;;;5074709;28;20429;-57
2023/03/28 09:14:22;;;;;;;5.90;1.40;;;9.80;76.80;;;;;;5074817;28;20469;-57
2023/03/28 09:17:02;;;;;;;5.80;1.53;;;10.00;75.40;;;;;;5075001;28;20425;-57
2023/03/28 09:19:44;;;;;;;6.17;1.40;;;10.20;72.90;;;;;;5075431;28;20424;-57
2023/03/28 09:22:25;;;;;;;6.23;1.50;;;10.40;70.00;;;;;;5074678;28;20475;-57
2023/03/28 09:25:16;;;;;;;6.73;1.67;;;10.50;67.00;;;;;;5074455;28;20435;-57
2023/03/28 09:27:53;;;;;;;8.60;2.47;;;10.60;63.30;;;;;;5074216;28;20945;-56
2023/03/28 09:30:22;;;;;;;8.67;2.33;;;10.70;63.90;;;;;;5074454;28;20449;-57
2023/03/28 09:32:49;;;;;;;7.23;1.70;;;10.80;65.00;;;;;;5074461;28;20498;-57
2023/03/28 09:35:18;;;;;;;2.50;1.50;;;11.00;65.40;;;;;;5074343;28;20483;-57
2023/03/28 09:37:49;;;;;;;6.40;1.63;;;11.30;62.60;;;;;;5074478;28;20449;-57
2023/03/28 09:40:23;;;;;;;5.40;2.43;;;11.50;61.10;;;;;;5074016;28;20464;-57
2023/03/28 09:42:56;;;;;;;4.50;1.60;;;11.60;59.20;;;;;;5074140;28;20837;-57
2023/03/28 09:45:33;;;;;;;8.40;2.50;;;11.80;59.40;;;;;;5074260;28;20433;-57
2023/03/28 09:48:00;;;;;;;8.83;2.43;;;12.00;59.50;;;;;;5073977;28;20911;-57
2023/03/28 09:50:27;;;;;;;8.13;3.10;;;12.20;58.70;;;;;;5074174;28;20449;-57
2023/03/28 09:52:57;;;;;;;5.23;2.23;;;12.40;59.40;;;;;;5073959;28;20463;-57
2023/03/28 09:55:28;;;;;;;5.70;1.73;;;12.60;56.30;;;;;;5074351;28;20453;-57
2023/03/28 09:58:07;;;;;;;6.57;2.00;;;12.80;53.60;;;;;;5074062;28;20775;-57
2023/03/28 10:00:36;;;;;;;4.67;1.60;;;13.00;52.90;;;;;;5073904;28;20452;-57
2023/03/28 10:03:04;;;;;;;4.70;1.70;;;13.10;52.70;;;;;;5073750;28;20575;-56
2023/03/28 10:05:35;;;;;;;3.43;1.20;;;13.30;52.30;;;;;;5073779;28;20453;-57
2023/03/28 10:08:05;;;;;;;7.03;1.80;;;13.50;50.00;;;;;;5073721;28;20884;-57
2023/03/28 10:10:33;;;;;;;6.93;1.90;;;13.50;48.50;;;;;;5073809;28;20456;-57
2023/03/28 10:13:03;;;;;;;6.50;1.90;;;13.60;48.30;;;;;;5073741;28;20582;-57
2023/03/28 10:15:33;;;;;;;4.17;1.57;;;13.70;48.20;;;;;;5073765;28;20891;-57
2023/03/28 10:18:01;;;;;;;9.80;2.03;;;13.80;48.90;;;;;;5074203;28;20456;-57
2023/03/28 10:20:35;;;;;;;2.90;1.20;;;13.70;47.90;;;;;;5073331;28;20996;-57
2023/03/28 10:23:04;;;;;;;5.73;1.97;;;13.80;49.00;;;;;;5073253;28;20485;-57
2023/03/28 10:25:37;;;;;;;5.27;2.10;;;13.90;48.60;;;;;;5073851;28;20457;-57
2023/03/28 10:28:06;;;;;;;3.67;1.93;;;14.00;47.40;;;;;;5073592;28;20437;-57
2023/03/28 10:30:35;;;;;;;9.53;1.63;;;14.20;47.30;;;;;;5073263;28;20449;-57
2023/03/28 10:33:20;;;;;;;9.10;1.73;;;14.30;45.60;;;;;;5073755;28;20468;-57
2023/03/28 10:35:54;;;;;;;2.63;1.60;;;14.50;45.10;;;;;;5074006;28;20441;-57
2023/03/28 10:38:22;;;;;;;4.40;1.43;;;14.60;44.40;;;;;;5073065;28;20950;-57
2023/03/28 10:40:58;;;;;;;5.50;1.43;;;14.80;44.80;;;;;;5073290;28;20870;-58
2023/03/28 10:43:32;;;;;;;4.70;2.00;;;14.80;43.20;;;;;;5073670;28;20496;-58
2023/03/28 10:46:01;;;;;;;3.17;1.30;;;14.80;43.80;;;;;;5073535;28;20502;-57
2023/03/28 10:48:32;;;;;;;4.50;1.37;;;14.90;43.40;;;;;;5073532;28;20456;-57
2023/03/28 10:51:07;;;;;;;4.90;2.30;;;15.10;44.20;;;;;;5073350;28;20466;-57
2023/03/28 10:53:43;;;;;;;3.73;1.63;;;15.20;43.70;;;;;;5073185;28;20563;-57
2023/03/28 10:56:25;;;;;;;5.00;2.07;;;15.30;43.60;;;;;;5073379;28;20440;-57
2023/03/28 10:59:02;;;;;;;6.87;2.30;;;15.50;43.20;;;;;;5073370;28;20795;-57
2023/03/28 11:01:35;;;;;;;6.20;1.60;;;15.60;42.40;;;;;;5073319;28;20502;-57
2023/03/28 11:04:13;;;;;;;5.40;1.37;;;15.80;41.40;;;;;;5073161;28;20493;-57
2023/03/28 11:06:45;;;;;;;4.43;2.00;;;15.90;41.40;;;;;;5073158;28;20436;-57
2023/03/28 11:09:19;;;;;;;3.73;1.37;;;16.10;41.50;;;;;;5073216;28;20437;-57
2023/03/28 11:11:58;;;;;;;5.20;1.83;;;16.20;40.30;;;;;;5073217;28;20429;-57
2023/03/28 11:14:35;;;;;;;4.10;1.47;;;16.30;40.20;;;;;;5073155;28;20518;-57
2023/03/28 11:17:07;;;;;;;4.27;1.27;;;16.10;40.50;;;;;;5072760;28;20895;-57
2023/03/28 11:19:51;;;;;;;5.33;1.37;;;15.90;39.40;;;;;;5073150;28;20448;-57
2023/03/28 11:22:31;;;;;;;4.23;1.73;;;15.80;40.50;;;;;;5072934;28;20432;-58
2023/03/28 11:25:08;;;;;;;4.20;1.30;;;15.40;39.30;;;;;;5073109;28;20432;-57
2023/03/28 11:27:44;;;;;;;2.80;1.50;;;15.30;41.50;;;;;;5073062;28;20433;-57
2023/03/28 11:30:16;;;;;;;2.57;1.17;;;15.10;37.60;;;;;;5073905;28;20425;-57
2023/03/28 11:32:47;;;;;;;5.30;1.30;;;15.10;38.40;;;;;;5072920;28;20526;-57
2023/03/28 11:35:20;;;;;;;5.60;1.60;;;15.40;40.20;;;;;;5073005;28;20437;-57
2023/03/28 11:37:58;;;;;;;2.83;1.20;;;15.60;38.60;;;;;;5072840;28;20463;-57
2023/03/28 11:40:30;;;;;;;2.13;1.30;;;15.90;38.10;;;;;;5072881;28;20482;-57
2023/03/28 11:43:03;;;;;;;5.47;1.60;;;16.30;37.70;;;;;;5072632;28;20512;-57
2023/03/28 11:45:34;;;;;;;2.90;1.10;;;16.80;35.90;;;;;;5072901;28;20436;-57
2023/03/28 11:48:06;;;;;;;3.83;1.20;;;17.40;37.10;;;;;;5072809;28;20444;-57
2023/03/28 11:50:46;;;;;;;5.00;0.93;;;17.80;34.10;;;;;;5074048;28;20425;-57
2023/03/28 11:53:15;;;;;;;2.70;1.20;;;18.10;33.60;;;;;;5072788;28;20479;-57
2023/03/28 11:55:48;;;;;;;4.17;2.23;;;18.70;31.80;;;;;;5056384;28;20445;-57
2023/03/28 11:58:20;;;;;;;2.80;1.30;;;19.40;31.80;;;;;;5056404;28;20440;-57
2023/03/28 12:00:55;;;;;;;2.57;1.00;;;20.50;32.20;;;;;;5056268;28;20487;-57
2023/03/28 12:03:27;;;;;;;3.23;1.20;;;21.60;29.80;;;;;;5055770;28;21002;-57
2023/03/28 12:06:01;;;;;;;3.77;1.10;;;22.60;28.30;;;;;;5056162;28;20480;-57
2023/03/28 12:08:33;;;;;;;3.03;1.30;;;22.80;26.20;;;;;;5056124;28;20441;-57
2023/03/28 12:11:06;;;;;;;2.50;1.20;;;23.30;26.00;;;;;;5056124;28;20435;-57
2023/03/28 12:13:40;;;;;;;3.87;1.40;;;23.50;26.10;;;;;;5055983;28;20458;-57
2023/03/28 12:16:09;;;;;;;2.90;1.37;;;24.00;25.70;;;;;;5055985;28;20475;-56
2023/03/28 12:18:41;;;;;;;4.10;1.43;;;25.00;25.50;;;;;;5055569;28;20951;-56
2023/03/28 12:21:12;;;;;;;3.33;1.50;;;25.70;24.00;;;;;;5055906;28;20442;-55
2023/03/28 12:23:48;;;;;;;2.20;1.47;;;26.40;23.70;;;;;;5055593;28;20542;-56
2023/03/28 12:26:22;;;;;;;4.00;1.20;;;27.10;22.50;;;;;;5055812;28;20433;-55
2023/03/28 12:28:53;;;;;;;2.90;1.20;;;27.50;22.20;;;;;;5055728;28;20437;-55
2023/03/28 12:31:25;;;;;;;3.57;1.50;;;27.70;20.00;;;;;;5055665;28;20491;-56
2023/03/28 12:33:57;;;;;;;3.50;1.30;;;27.80;20.80;;;;;;5055182;28;20468;-56
2023/03/28 12:36:29;;;;;;;2.70;1.20;;;27.70;21.50;;;;;;5055576;28;20430;-57
2023/03/28 12:39:00;;;;;;;2.53;0.90;;;27.70;21.50;;;;;;5055196;28;20963;-57
2023/03/28 12:41:31;;;;;;;4.40;1.70;;;27.80;23.00;;;;;;5055504;28;20441;-57
2023/03/28 12:44:03;;;;;;;1.80;1.40;;;27.70;20.60;;;;;;5055227;28;20532;-57
2023/03/28 12:46:37;;;;;;;1.63;1.10;;;27.00;20.40;;;;;;5055507;28;20437;-57
2023/03/28 12:49:08;;;;;;;4.10;1.00;;;26.10;20.80;;;;;;5055390;28;20901;-57
2023/03/28 12:51:39;;;;;;;4.63;1.77;;;25.20;21.50;;;;;;5055368;28;20512;-56
2023/03/28 12:54:09;;;;;;;5.53;1.73;;;24.70;22.70;;;;;;5055203;28;20468;-57
2023/03/28 12:56:36;;;;;;;5.40;1.70;;;24.50;22.50;;;;;;5055285;28;20438;-57
2023/03/28 12:59:35;;;;;;;3.87;1.47;;;23.80;21.20;;;;;;5055204;28;20449;-57
2023/03/28 13:02:09;;;;;;;3.80;1.47;;;23.30;22.30;;;;;;5054785;28;20450;-56
2023/03/28 13:04:45;;;;;;;2.30;1.50;;;22.60;23.20;;;;;;5054911;28;20492;-56
2023/03/28 13:07:19;;;;;;;1.53;1.10;;;21.80;24.80;;;;;;5054943;28;20436;-57